ADDS METAR Data INFO
IDs: Format: Raw Decoded Include TAF

Data at: 2312 UTC 16 Jan 2018

KLAW 162253Z 36011KT 10SM CLR M04/M19 A3071 RMK AO2 SLP418 T10441194
KLAW 162153Z 01010G19KT 10SM CLR M03/M19 A3072 RMK AO2 SLP419 T10331194
KLAW 162053Z 35015KT 10SM CLR M03/M19 A3073 RMK AO2 SLP422 T10331189 56027
KLAW 161953Z 35016KT 10SM CLR M04/M19 A3074 RMK AO2 SLP426 T10441194
KLAW 161853Z 36017KT 10SM CLR M05/M19 A3077 RMK AO2 SLP436 T10501194
KLAW 161753Z 36014KT 10SM CLR M06/M19 A3081 RMK AO2 SLP450 T10561189 11056 21128 58010
KLAW 161653Z 35016KT 10SM CLR M08/M19 A3084 RMK AO2 SLP464 T10781189
KLAW 161553Z 36016KT 10SM CLR M09/M19 A3086 RMK AO2 SLP468 T10891189
KLAW 161453Z 36014KT 10SM CLR M11/M19 A3084 RMK AO2 SLP462 T11111189 51014
KLAW 161353Z 36010KT 10SM CLR M13/M19 A3083 RMK AO2 SLP458 T11281194
KLAW 161253Z AUTO 01011KT 10SM CLR M12/M19 A3082 RMK AO2 SLP454 T11221189
KLAW 161153Z AUTO 36009KT 10SM CLR M12/M19 A3080 RMK AO2 SLP447 T11221189 11072 21122 51016
KLAW 161053Z AUTO 01009KT 10SM CLR M12/M19 A3078 RMK AO2 SLP441 T11171189
KLAW 160953Z AUTO 36018KT 10SM CLR M10/M19 A3076 RMK AO2 PK WND 36027/0922 SLP433 T11001189
KLAW 160853Z AUTO 36017G25KT 10SM CLR M09/M19 A3075 RMK AO2 PK WND 01032/0815 SLP425 T10891189 53004
KLAW 160753Z AUTO 36022G31KT 10SM BKN120 M07/M18 A3073 RMK AO2 PK WND 01031/0712 SLP417 T10721178
KLAW 160653Z AUTO 36018G28KT 10SM BKN120 M07/M17 A3073 RMK AO2 PK WND 01028/0638 SLP417 T10721172
KLAW 160553Z AUTO 36018G24KT 10SM OVC120 M07/M16 A3073 RMK AO2 PK WND 36030/0502 SLP420 T10721161 11028 21072 400721072 51022
KLAW 160453Z AUTO 36023G30KT 10SM FEW100 OVC120 M07/M16 A3071 RMK AO2 PK WND 36035/0359 SLP412 T10671161
KLAW 160353Z AUTO 01023G31KT 10SM OVC090 M06/M16 A3069 RMK AO2 PK WND 01033/0316 SLP405 T10561161
KLAW 160253Z AUTO 36024G30KT 10SM OVC085 M05/M16 A3067 RMK AO2 PK WND 01030/0212 SLP397 T10501161 51032
KLAW 160153Z AUTO 36021G26KT 10SM OVC090 M04/M14 A3064 RMK AO2 PK WND 35029/0135 SLP390 T10441144
KLAW 160053Z AUTO 36020G24KT 10SM OVC080 M03/M12 A3060 RMK AO2 PK WND 03026/2355 SLP377 T10331122
KLAW 152353Z 02021G26KT 10SM OVC070 M03/M14 A3057 RMK AO2 PK WND 01030/2314 SLP367 T10281144 10061 21028 51043
KLAW 152253Z 02021G30KT 10SM OVC065 M01/M17 A3054 RMK AO2 PK WND 01033/2157 SLP355 T10111172
KLAW 152153Z 01024G32KT 10SM OVC060 01/M14 A3048 RMK AO2 PK WND 02034/2106 SLP335 T00111139
KLAW 152053Z 03024G33KT 10SM FEW034 SCT050 04/M07 A3044 RMK AO2 PK WND 01036/2023 SLP318 T00391067 53015
KLAW 151953Z 03025G33KT 10SM SCT027 BKN034 OVC046 04/M04 A3042 RMK AO2 PK WND 02034/1903 SLP311 T00441039
KLAW 151853Z 03023G34KT 10SM OVC027 04/M02 A3040 RMK AO2 PK WND 01034/1846 SLP304 T00441017
KLAW 151753Z 03022G29KT 10SM OVC023 05/00 A3039 RMK AO2 PK WND 02033/1730 SLP301 T00500000 10072 21067 51033
KLAW 151653Z 04024G36KT 10SM BKN027 07/00 A3037 RMK AO2 PK WND 04036/1648 SLP293 T00670000
KLAW 151553Z 03022G29KT 10SM CLR 06/M03 A3034 RMK AO2 PK WND 03029/1550 SLP281 T00561028
KLAW 151453Z 03011KT 10SM CLR 02/M04 A3029 RMK AO2 SLP267 T00221039 53024
KLAW 151353Z 36008KT 10SM CLR M03/M05 A3028 RMK AO2 PRESRR SLP264 T10281050
KLAW 151253Z AUTO 00000KT 10SM CLR M06/M08 A3022 RMK AO2 SLP244 T10611083
KLAW 151153Z AUTO 36003KT 10SM CLR M06/M08 A3022 RMK AO2 SLP242 T10611078 11033 21067 55006